Hosford, Florida
Current Conditions -  °F | °C
As of 6:55 PM on Sunday 21 Dec 2014 (Local Time) from K2J9 Reporting Station
Overcast Overcast  
Wind Chill: 55°   Ceiling: 300
Heat Index: 55°   Visibility: 1mi
Dew Point: 55°   Wind: 5mph
Humidity: 100%   Direction: 40°NE
Pressure: 30.07"   Gusts: NA
Location:  30.39°N, 84.8°W
Report Text: K2J9 212355Z AUTO 04004KT 1SM OVC003 13/13 A3007 RMK AO1
Loading
Personal Weather Stations






























Interactive Weather Map New forecast layout! Learn more

10-Day Weather Forecast

Advertisements
Track Severe Weather on mobile